createdAt,value
2022-12-08T00:01:41.954Z,8.01
2022-12-08T00:04:10.244Z,8.05
2022-12-08T00:06:59.730Z,7.90
2022-12-08T00:09:36.384Z,8.10
2022-12-08T00:12:11.173Z,7.88
2022-12-08T00:14:41.291Z,8.10
2022-12-08T00:17:11.495Z,7.85
2022-12-08T00:19:40.318Z,8.04
2022-12-08T00:22:11.233Z,7.90
2022-12-08T00:24:41.110Z,8.06
2022-12-08T00:27:10.544Z,7.86
2022-12-08T00:29:38.966Z,7.90
2022-12-08T00:32:07.556Z,7.94
2022-12-08T00:34:36.586Z,7.97
2022-12-08T00:37:04.566Z,7.98
2022-12-08T00:39:34.481Z,7.86
2022-12-08T00:42:17.512Z,7.94
2022-12-08T00:44:46.936Z,7.76
2022-12-08T00:47:15.354Z,7.76
2022-12-08T00:49:43.901Z,7.85
2022-12-08T00:52:12.711Z,7.70
2022-12-08T00:54:42.044Z,7.85
2022-12-08T00:57:10.529Z,7.81
2022-12-08T00:59:38.313Z,7.71
2022-12-08T01:02:06.387Z,7.77
2022-12-08T01:04:34.271Z,7.63
2022-12-08T01:07:02.717Z,7.73
2022-12-08T01:09:30.634Z,7.37
2022-12-08T01:12:00.278Z,7.48
2022-12-08T01:14:28.548Z,7.49
2022-12-08T01:16:56.699Z,7.50
2022-12-08T01:19:24.829Z,7.58
2022-12-08T01:21:52.622Z,7.43
2022-12-08T01:24:22.815Z,7.59
2022-12-08T01:26:51.837Z,7.62
2022-12-08T01:29:22.022Z,7.56
2022-12-08T01:31:49.882Z,7.64
2022-12-08T01:34:18.092Z,7.42
2022-12-08T01:36:47.496Z,7.43
2022-12-08T01:39:17.756Z,7.52
2022-12-08T01:41:48.387Z,7.34
2022-12-08T01:45:03.393Z,7.61
2022-12-08T01:47:38.649Z,7.43
2022-12-08T01:50:08.308Z,7.52
2022-12-08T01:52:39.511Z,7.22
2022-12-08T01:55:12.374Z,7.27
2022-12-08T01:57:44.677Z,7.15
2022-12-08T02:00:23.982Z,7.17
2022-12-08T02:03:00.613Z,7.18
2022-12-08T02:05:37.133Z,7.00
2022-12-08T02:08:24.060Z,7.15
2022-12-08T02:11:07.473Z,7.09
2022-12-08T02:13:35.729Z,7.07
2022-12-08T02:16:12.855Z,7.00
2022-12-08T02:19:30.275Z,7.00
2022-12-08T02:22:11.673Z,6.91
2022-12-08T02:24:49.770Z,6.96
2022-12-08T02:27:49.922Z,6.93
2022-12-08T02:30:26.217Z,7.14
2022-12-08T02:33:41.359Z,7.24
2022-12-08T02:36:18.713Z,6.93
2022-12-08T02:58:20.250Z,6.75
2022-12-08T03:01:18.069Z,6.75
2022-12-08T03:03:58.513Z,7.00
2022-12-08T03:06:35.727Z,6.73
2022-12-08T03:09:10.865Z,6.89
2022-12-08T03:11:47.405Z,6.82
2022-12-08T03:14:37.336Z,6.89
2022-12-08T03:17:11.885Z,6.97
2022-12-08T03:19:47.000Z,6.88
2022-12-08T03:22:21.980Z,6.77
2022-12-08T03:24:51.292Z,6.68
2022-12-08T03:27:28.480Z,6.97
2022-12-08T03:30:05.221Z,6.71
2022-12-08T03:33:04.145Z,6.74
2022-12-08T03:35:45.486Z,6.70
2022-12-08T03:38:19.059Z,6.77
2022-12-08T03:41:09.901Z,6.66
2022-12-08T03:43:55.017Z,6.64
2022-12-08T03:46:38.318Z,6.58
2022-12-08T03:52:22.943Z,6.81
2022-12-08T03:54:59.037Z,6.58
2022-12-08T03:57:27.466Z,6.71
2022-12-08T03:59:56.041Z,6.75
2022-12-08T04:02:30.810Z,6.69
2022-12-08T04:05:00.963Z,6.80
2022-12-08T04:07:28.865Z,6.99
2022-12-08T04:12:40.013Z,6.84
2022-12-08T04:15:09.785Z,7.10
2022-12-08T04:17:38.622Z,7.10
2022-12-08T04:24:01.011Z,7.15
2022-12-08T04:26:31.059Z,6.89
2022-12-08T04:28:59.570Z,7.00
2022-12-08T04:31:27.669Z,7.04
2022-12-08T04:33:56.398Z,7.10
2022-12-08T04:36:28.818Z,6.84
2022-12-08T04:42:46.684Z,6.92
2022-12-08T04:45:23.543Z,6.84
2022-12-08T04:47:51.925Z,6.68
2022-12-08T04:50:37.957Z,6.62
2022-12-08T04:53:06.675Z,6.91
2022-12-08T04:55:41.836Z,6.80
2022-12-08T04:58:14.494Z,6.64
2022-12-08T05:00:44.890Z,6.81
2022-12-08T05:03:13.654Z,6.53
2022-12-08T05:05:47.093Z,6.66
2022-12-08T05:11:48.508Z,6.70
2022-12-08T05:40:28.847Z,6.56
2022-12-08T05:42:56.708Z,6.63
2022-12-08T05:45:24.975Z,6.51
2022-12-08T05:47:54.244Z,6.64
2022-12-08T05:50:22.117Z,6.51
2022-12-08T05:52:50.400Z,6.62
2022-12-08T05:55:19.019Z,6.50
2022-12-08T05:57:48.541Z,6.63
2022-12-08T06:00:17.597Z,6.48
2022-12-08T06:02:45.569Z,6.46
2022-12-08T06:05:13.776Z,6.61
2022-12-08T06:07:42.001Z,6.36
2022-12-08T06:10:10.874Z,6.34
2022-12-08T06:12:39.220Z,6.48
2022-12-08T06:15:09.861Z,6.32
2022-12-08T06:17:37.748Z,6.39
2022-12-08T06:20:07.366Z,6.57
2022-12-08T06:22:35.827Z,6.47
2022-12-08T06:25:07.210Z,6.51
2022-12-08T06:27:37.668Z,6.43
2022-12-08T06:30:07.669Z,6.62
2022-12-08T06:32:38.087Z,6.49
2022-12-08T06:35:06.621Z,6.56
2022-12-08T06:37:34.684Z,6.56
2022-12-08T06:40:03.278Z,6.55
2022-12-08T06:42:47.150Z,6.50
2022-12-08T06:45:16.463Z,6.51
2022-12-08T06:47:46.316Z,6.43
2022-12-08T06:50:15.266Z,6.49
2022-12-08T06:52:54.247Z,6.13
2022-12-08T06:55:57.531Z,6.46
2022-12-08T06:58:15.444Z,6.48
2022-12-08T07:00:43.837Z,6.44
2022-12-08T07:03:14.774Z,6.45
2022-12-08T07:05:43.179Z,6.41
2022-12-08T07:08:11.095Z,6.17
2022-12-08T07:10:39.789Z,6.47
2022-12-08T07:13:07.621Z,6.46
2022-12-08T07:15:38.326Z,6.49
2022-12-08T07:18:06.259Z,6.42
2022-12-08T07:20:36.390Z,6.50
2022-12-08T07:23:04.132Z,6.51
2022-12-08T07:25:32.475Z,6.34
2022-12-08T07:28:00.217Z,6.56
2022-12-08T07:30:27.922Z,6.59
2022-12-08T07:32:56.117Z,6.59
2022-12-08T07:35:24.139Z,6.62
2022-12-08T07:37:54.307Z,6.49
2022-12-08T07:40:22.120Z,6.52
2022-12-08T07:42:49.889Z,6.61
2022-12-08T07:45:18.073Z,6.61
2022-12-08T07:47:45.792Z,6.72
2022-12-08T07:50:13.983Z,6.53
2022-12-08T07:52:41.748Z,6.74
2022-12-08T07:55:11.855Z,6.75
2022-12-08T07:57:39.612Z,6.78
2022-12-08T08:00:08.998Z,6.78
2022-12-08T08:02:37.086Z,6.71
2022-12-08T08:05:05.612Z,6.78
2022-12-08T08:07:34.337Z,6.77
2022-12-08T08:10:05.010Z,6.55
2022-12-08T08:12:34.648Z,6.67
2022-12-08T08:15:02.819Z,6.60
2022-12-08T08:17:32.022Z,6.68
2022-12-08T08:19:59.962Z,6.73
2022-12-08T08:22:28.799Z,6.77
2022-12-08T08:24:56.527Z,6.76
2022-12-08T08:27:25.416Z,6.75
2022-12-08T08:29:55.401Z,6.66
2022-12-08T08:32:26.016Z,6.78
2022-12-08T08:34:54.018Z,6.76
2022-12-08T08:37:22.398Z,6.72
2022-12-08T08:39:50.825Z,6.73
2022-12-08T08:42:19.162Z,6.62
2022-12-08T08:44:46.940Z,6.70
2022-12-08T08:47:16.820Z,6.72
2022-12-08T08:49:44.640Z,6.73
2022-12-08T08:52:12.804Z,6.62
2022-12-08T08:54:40.698Z,6.73
2022-12-08T08:57:08.789Z,6.71
2022-12-08T08:59:36.555Z,6.72
2022-12-08T09:02:05.162Z,6.69
2022-12-08T09:04:34.814Z,6.64
2022-12-08T09:07:03.401Z,6.59
2022-12-08T09:09:31.377Z,6.69
2022-12-08T09:11:59.126Z,6.66
2022-12-08T09:14:27.906Z,6.53
2022-12-08T09:16:55.875Z,6.39
2022-12-08T09:19:24.371Z,6.39
2022-12-08T09:21:53.698Z,6.68
2022-12-08T09:24:21.594Z,6.53
2022-12-08T09:26:50.097Z,6.77
2022-12-08T09:29:18.500Z,6.79
2022-12-08T09:31:46.929Z,6.78
2022-12-08T09:34:15.290Z,6.79
2022-12-08T09:36:43.515Z,6.76
2022-12-08T09:39:12.871Z,6.77
2022-12-08T09:41:48.574Z,6.77
2022-12-08T09:44:45.276Z,6.79
2022-12-08T09:47:20.993Z,6.79
2022-12-08T09:49:54.730Z,6.80
2022-12-08T09:52:27.091Z,6.62
2022-12-08T09:55:00.002Z,6.82
2022-12-08T09:57:28.847Z,6.83
2022-12-08T10:00:01.345Z,6.79
2022-12-08T10:02:31.252Z,6.89
2022-12-08T10:05:01.577Z,6.90
2022-12-08T10:07:39.462Z,6.75
2022-12-08T10:10:20.328Z,6.97
2022-12-08T10:12:56.105Z,6.99
2022-12-08T10:15:45.696Z,6.99
2022-12-08T10:18:18.446Z,6.96
2022-12-08T10:20:48.441Z,6.82
2022-12-08T10:23:27.362Z,7.02
2022-12-08T10:26:02.403Z,7.12
2022-12-08T10:28:31.431Z,7.13
2022-12-08T10:30:59.185Z,6.99
2022-12-08T10:33:29.077Z,7.22
2022-12-08T10:36:00.126Z,7.25
2022-12-08T10:38:31.653Z,7.33
2022-12-08T10:41:08.339Z,7.39
2022-12-08T10:43:39.185Z,7.35
2022-12-08T10:46:13.588Z,7.46
2022-12-08T10:48:50.624Z,7.49
2022-12-08T10:51:30.958Z,7.51
2022-12-08T10:53:59.294Z,7.48
2022-12-08T10:56:30.216Z,7.51
2022-12-08T10:59:20.354Z,7.49
2022-12-08T11:01:50.686Z,7.51
2022-12-08T11:04:20.951Z,7.54
2022-12-08T11:06:51.017Z,7.55
2022-12-08T11:09:38.832Z,7.60
2022-12-08T11:12:15.892Z,7.62
2022-12-08T11:14:52.032Z,7.64
2022-12-08T11:17:27.613Z,7.64
2022-12-08T11:20:00.448Z,7.63
2022-12-08T11:22:32.770Z,7.69
2022-12-08T11:25:03.511Z,7.73
2022-12-08T11:27:35.175Z,7.73
2022-12-08T11:30:06.182Z,7.72
2022-12-08T11:32:40.598Z,7.77
2022-12-08T11:35:11.929Z,7.79
2022-12-08T11:37:42.030Z,7.87
2022-12-08T11:40:18.880Z,7.90
2022-12-08T11:42:56.619Z,7.93
2022-12-08T11:45:29.336Z,7.97
2022-12-08T11:48:08.767Z,8.01
2022-12-08T11:50:43.905Z,8.05
2022-12-08T11:53:20.307Z,7.79
2022-12-08T11:55:53.293Z,8.11
2022-12-08T11:58:28.169Z,8.18
2022-12-08T12:00:56.565Z,8.22
2022-12-08T12:03:31.723Z,8.28
2022-12-08T12:06:38.013Z,8.11
2022-12-08T12:09:15.729Z,8.32
2022-12-08T12:12:11.774Z,8.36
2022-12-08T12:15:29.720Z,8.36
2022-12-08T12:18:00.824Z,8.23
2022-12-08T12:20:32.218Z,8.31
2022-12-08T12:23:06.181Z,8.00
2022-12-08T12:25:37.002Z,8.12
2022-12-08T12:28:09.188Z,8.31
2022-12-08T12:30:55.651Z,8.33
2022-12-08T12:33:23.934Z,8.37
2022-12-08T12:35:52.064Z,8.38
2022-12-08T12:38:43.699Z,8.37
2022-12-08T12:41:13.371Z,8.32
2022-12-08T12:43:41.889Z,8.31
2022-12-08T12:46:46.173Z,8.45
2022-12-08T12:49:51.799Z,8.49
2022-12-08T12:52:40.898Z,8.52
2022-12-08T12:55:23.620Z,8.52
2022-12-08T12:57:54.008Z,8.53
2022-12-08T13:00:25.131Z,8.46
2022-12-08T13:02:55.365Z,8.49
2022-12-08T13:05:27.329Z,8.47
2022-12-08T13:08:00.487Z,8.45
2022-12-08T13:10:32.621Z,8.44
2022-12-08T13:13:08.157Z,8.44
2022-12-08T13:15:38.616Z,8.44
2022-12-08T13:18:07.763Z,8.43
2022-12-08T13:20:47.532Z,8.47
2022-12-08T13:23:42.269Z,8.47
2022-12-08T13:26:19.765Z,8.48
2022-12-08T13:29:22.157Z,8.44
2022-12-08T13:31:52.732Z,8.47
2022-12-08T13:34:26.221Z,8.48
2022-12-08T13:37:03.378Z,8.44
2022-12-08T13:39:37.917Z,8.46
2022-12-08T13:42:16.776Z,8.57
2022-12-08T13:47:59.912Z,8.61
2022-12-08T13:59:28.543Z,8.56
2022-12-08T14:01:59.609Z,8.54
2022-12-08T14:05:16.192Z,8.33
2022-12-08T14:07:17.799Z,8.52
2022-12-08T14:09:48.106Z,8.40
2022-12-08T14:12:21.508Z,8.39
2022-12-08T14:15:07.796Z,8.46
2022-12-08T14:17:36.283Z,8.47
2022-12-08T14:20:07.797Z,8.45
2022-12-08T14:22:38.192Z,8.43
2022-12-08T14:25:08.528Z,8.37
2022-12-08T14:27:39.211Z,8.36
2022-12-08T14:30:10.580Z,8.24
2022-12-08T14:32:44.425Z,8.31
2022-12-08T14:35:29.234Z,8.25
2022-12-08T14:38:00.638Z,8.30
2022-12-08T14:40:34.175Z,8.20
2022-12-08T14:43:19.456Z,8.26
2022-12-08T14:45:53.898Z,8.24
2022-12-08T14:48:24.131Z,8.23
2022-12-08T14:51:15.074Z,8.21
2022-12-08T14:53:46.943Z,8.20
2022-12-08T14:56:22.448Z,8.22
2022-12-08T14:59:04.081Z,8.20
2022-12-08T15:01:32.789Z,8.18
2022-12-08T15:04:12.780Z,8.15
2022-12-08T15:06:48.244Z,8.16
2022-12-08T15:09:30.448Z,8.14
2022-12-08T15:12:03.155Z,8.04
2022-12-08T15:14:35.025Z,8.11
2022-12-08T15:17:03.211Z,8.01
2022-12-08T15:19:33.493Z,8.09
2022-12-08T15:22:13.541Z,8.11
2022-12-08T15:24:41.545Z,7.96
2022-12-08T15:27:17.509Z,7.99
2022-12-08T15:29:48.172Z,8.17
2022-12-08T15:32:19.246Z,8.15
2022-12-08T15:34:47.318Z,7.94
2022-12-08T15:37:27.211Z,8.03
2022-12-08T15:39:58.908Z,8.00
2022-12-08T15:42:29.920Z,8.08
2022-12-08T15:44:59.589Z,8.01
2022-12-08T15:47:27.976Z,8.03
2022-12-08T15:49:58.861Z,8.24
2022-12-08T15:52:29.581Z,8.23
2022-12-08T15:54:57.530Z,8.10
2022-12-08T15:58:10.883Z,8.16
2022-12-08T16:00:51.867Z,8.17
2022-12-08T16:09:14.161Z,7.92
2022-12-08T16:12:08.861Z,8.07
2022-12-08T16:17:30.032Z,8.05
2022-12-08T16:19:58.356Z,7.94
2022-12-08T16:22:52.737Z,8.01
2022-12-08T16:25:19.906Z,7.97
2022-12-08T16:30:38.336Z,7.93
2022-12-08T16:33:08.371Z,7.82
2022-12-08T16:35:36.183Z,7.86
2022-12-08T16:38:04.694Z,7.88
2022-12-08T16:40:33.232Z,7.82
2022-12-08T16:43:00.020Z,7.69
2022-12-08T16:45:30.330Z,7.67
2022-12-08T16:48:02.151Z,7.79
2022-12-08T16:50:34.400Z,7.76
2022-12-08T16:53:05.931Z,7.74
2022-12-08T16:55:35.654Z,7.71
2022-12-08T16:58:04.675Z,7.66
2022-12-08T17:00:37.434Z,7.64
2022-12-08T17:03:08.562Z,7.41
2022-12-08T17:05:41.390Z,7.59
2022-12-08T17:08:09.862Z,7.51
2022-12-08T17:10:40.124Z,7.56
2022-12-08T17:13:09.190Z,7.58
2022-12-08T17:15:37.496Z,7.52
2022-12-08T17:18:05.511Z,7.30
2022-12-08T17:20:36.359Z,7.41
2022-12-08T17:23:06.243Z,7.41
2022-12-08T17:25:34.146Z,7.52
2022-12-08T17:28:04.420Z,7.43
2022-12-08T17:30:32.207Z,7.55
2022-12-08T17:32:59.919Z,7.34
2022-12-08T17:35:28.232Z,7.53
2022-12-08T17:41:41.331Z,7.48
2022-12-08T17:44:16.747Z,7.36
2022-12-08T17:46:52.222Z,7.55
2022-12-08T17:49:24.470Z,7.54
2022-12-08T17:51:55.320Z,7.49
2022-12-08T17:54:23.708Z,7.35
2022-12-08T17:56:51.894Z,7.32
2022-12-08T17:59:21.781Z,7.14
2022-12-08T18:01:49.700Z,7.38
2022-12-08T18:04:17.967Z,7.36
2022-12-08T18:06:45.810Z,7.00
2022-12-08T18:09:16.273Z,7.30
2022-12-08T18:11:46.197Z,7.21
2022-12-08T18:14:16.662Z,7.25
2022-12-08T18:16:55.587Z,7.22
2022-12-08T18:19:24.037Z,7.16
2022-12-08T18:21:51.881Z,7.19
2022-12-08T18:24:22.603Z,7.16
2022-12-08T18:27:05.530Z,7.04
2022-12-08T18:29:33.933Z,7.04
2022-12-08T18:32:03.263Z,7.07
2022-12-08T18:34:31.581Z,6.87
2022-12-08T18:36:59.985Z,6.80
2022-12-08T18:39:31.403Z,6.80
2022-12-08T18:42:02.689Z,6.52
2022-12-08T18:44:30.924Z,6.63
2022-12-08T18:46:58.873Z,6.87
2022-12-08T18:49:28.512Z,6.56
2022-12-08T18:51:56.498Z,6.72
2022-12-08T18:54:37.191Z,6.79
2022-12-08T18:57:12.893Z,6.49
2022-12-08T18:59:41.647Z,6.69
2022-12-08T19:02:12.544Z,6.38
2022-12-08T19:04:43.898Z,6.60
2022-12-08T19:07:12.213Z,6.58
2022-12-08T19:09:43.255Z,6.73
2022-12-08T19:12:16.163Z,6.68
2022-12-08T19:14:46.797Z,6.58
2022-12-08T19:17:15.390Z,6.57
2022-12-08T19:19:46.035Z,6.61
2022-12-08T19:22:14.963Z,6.72
2022-12-08T19:24:44.999Z,6.72
2022-12-08T19:27:13.442Z,6.43
2022-12-08T19:29:41.854Z,6.74
2022-12-08T19:32:09.625Z,6.74
2022-12-08T19:34:38.941Z,6.73
2022-12-08T19:37:09.284Z,6.56
2022-12-08T19:39:54.927Z,6.48
2022-12-08T19:42:40.172Z,6.68
2022-12-08T19:45:12.208Z,6.31
2022-12-08T19:47:41.028Z,6.48
2022-12-08T19:50:29.741Z,6.51
2022-12-08T19:52:59.307Z,6.39
2022-12-08T19:55:27.926Z,6.36
2022-12-08T19:57:56.759Z,6.40
2022-12-08T20:00:25.540Z,6.36
2022-12-08T20:02:53.492Z,6.41
2022-12-08T20:05:21.791Z,6.16
2022-12-08T20:07:49.773Z,6.31
2022-12-08T20:10:23.353Z,6.40
2022-12-08T20:12:51.295Z,6.37
2022-12-08T20:15:19.822Z,6.01
2022-12-08T20:17:47.718Z,6.25
2022-12-08T20:20:16.213Z,6.39
2022-12-08T20:22:46.187Z,6.40
2022-12-08T20:25:15.101Z,6.40
2022-12-08T20:27:44.534Z,6.39
2022-12-08T20:30:17.064Z,6.35
2022-12-08T20:32:45.537Z,6.41
2022-12-08T20:35:14.062Z,6.42
2022-12-08T20:37:41.864Z,6.36
2022-12-08T20:40:11.065Z,6.46
2022-12-08T20:42:38.929Z,6.32
2022-12-08T20:45:10.133Z,6.49
2022-12-08T20:47:40.916Z,6.34
2022-12-08T20:50:10.894Z,6.29
2022-12-08T20:52:39.031Z,6.42
2022-12-08T20:55:09.031Z,6.57
2022-12-08T20:57:39.878Z,6.52
2022-12-08T21:00:11.499Z,6.58
2022-12-08T21:02:46.947Z,6.58
2022-12-08T21:05:18.327Z,6.49
2022-12-08T21:07:47.547Z,6.54
2022-12-08T21:10:15.548Z,6.54
2022-12-08T21:12:43.977Z,6.34
2022-12-08T21:15:13.703Z,6.51
2022-12-08T21:17:42.606Z,6.36
2022-12-08T21:20:11.227Z,6.52
2022-12-08T21:22:41.651Z,6.52
2022-12-08T21:25:10.488Z,6.50
2022-12-08T21:27:42.974Z,6.49
2022-12-08T21:30:17.888Z,6.37
2022-12-08T21:32:46.451Z,6.47
2022-12-08T21:35:17.649Z,6.27
2022-12-08T21:37:47.468Z,6.32
2022-12-08T21:40:15.682Z,6.47
2022-12-08T21:42:46.846Z,6.45
2022-12-08T21:45:18.858Z,6.40
2022-12-08T21:47:49.764Z,6.31
2022-12-08T21:50:18.537Z,6.41
2022-12-08T21:52:49.068Z,6.36
2022-12-08T21:55:20.842Z,6.37
2022-12-08T21:57:49.256Z,6.09
2022-12-08T22:00:22.314Z,6.21
2022-12-08T22:02:51.211Z,5.94
2022-12-08T22:05:23.751Z,6.26
2022-12-08T22:07:53.855Z,6.27
2022-12-08T22:10:23.089Z,6.14
2022-12-08T22:12:51.382Z,6.07
2022-12-08T22:15:21.798Z,6.15
2022-12-08T22:17:51.567Z,6.22
2022-12-08T22:20:20.163Z,6.11
2022-12-08T22:22:48.093Z,6.10
2022-12-08T22:25:16.137Z,6.09
2022-12-08T22:27:44.028Z,6.13
2022-12-08T22:30:13.371Z,6.23
2022-12-08T22:32:43.125Z,6.15
2022-12-08T22:35:11.286Z,6.02
2022-12-08T22:37:39.869Z,5.96
2022-12-08T22:40:09.544Z,6.20
2022-12-08T22:42:38.176Z,5.97
2022-12-08T22:45:06.873Z,6.16
2022-12-08T22:47:35.846Z,5.97
2022-12-08T22:50:06.378Z,6.17
2022-12-08T22:52:34.609Z,6.18
2022-12-08T22:55:02.902Z,5.87
2022-12-08T22:57:30.916Z,6.03
2022-12-08T22:59:58.807Z,5.89
2022-12-08T23:02:29.987Z,6.03
2022-12-08T23:04:57.982Z,6.19
2022-12-08T23:07:28.073Z,5.87
2022-12-08T23:09:56.100Z,6.13
2022-12-08T23:12:24.620Z,6.04
2022-12-08T23:14:52.661Z,6.09
2022-12-08T23:17:20.862Z,6.13
2022-12-08T23:19:48.916Z,6.13
2022-12-08T23:22:16.800Z,6.14
2022-12-08T23:24:46.424Z,6.10
2022-12-08T23:27:14.262Z,5.80
2022-12-08T23:29:42.578Z,5.99
2022-12-08T23:32:10.623Z,6.07
2022-12-08T23:34:38.834Z,6.00
2022-12-08T23:37:06.710Z,5.99
2022-12-08T23:39:35.423Z,5.74
2022-12-08T23:42:05.037Z,5.88
2022-12-08T23:44:33.353Z,5.71
2022-12-08T23:47:01.273Z,5.76
2022-12-08T23:49:29.737Z,5.83
2022-12-08T23:51:57.732Z,5.68
2022-12-08T23:54:25.765Z,5.91
2022-12-08T23:56:54.136Z,5.65
2022-12-08T23:59:23.544Z,5.85
